sensor_id;sensor_type;location;lat;lon;timestamp;P1;durP1;ratioP1;P2;durP2;ratioP2
78372;SDS011;67656;52.074;4.758;2023-04-24T00:03:26;3.60;;;0.70;;
78372;SDS011;67656;52.074;4.758;2023-04-24T00:08:27;2.33;;;0.90;;
78372;SDS011;67656;52.074;4.758;2023-04-24T00:13:27;3.63;;;1.10;;
78372;SDS011;67656;52.074;4.758;2023-04-24T00:18:27;3.97;;;1.02;;
78372;SDS011;67656;52.074;4.758;2023-04-24T00:23:28;2.20;;;1.00;;
78372;SDS011;67656;52.074;4.758;2023-04-24T00:28:28;3.08;;;1.00;;
78372;SDS011;67656;52.074;4.758;2023-04-24T00:33:28;3.30;;;1.30;;
78372;SDS011;67656;52.074;4.758;2023-04-24T00:38:29;3.53;;;1.50;;
78372;SDS011;67656;52.074;4.758;2023-04-24T00:43:29;4.30;;;1.64;;
78372;SDS011;67656;52.074;4.758;2023-04-24T00:48:29;5.03;;;1.60;;
78372;SDS011;67656;52.074;4.758;2023-04-24T00:53:30;5.13;;;1.90;;
78372;SDS011;67656;52.074;4.758;2023-04-24T00:58:31;5.40;;;1.60;;
78372;SDS011;67656;52.074;4.758;2023-04-24T01:03:32;4.55;;;1.60;;
78372;SDS011;67656;52.074;4.758;2023-04-24T01:08:33;5.50;;;1.60;;
78372;SDS011;67656;52.074;4.758;2023-04-24T01:13:34;4.05;;;1.55;;
78372;SDS011;67656;52.074;4.758;2023-04-24T01:18:35;6.93;;;1.50;;
78372;SDS011;67656;52.074;4.758;2023-04-24T01:23:35;4.75;;;1.42;;
78372;SDS011;67656;52.074;4.758;2023-04-24T01:28:35;3.72;;;1.55;;
78372;SDS011;67656;52.074;4.758;2023-04-24T01:33:39;2.93;;;1.60;;
78372;SDS011;67656;52.074;4.758;2023-04-24T01:38:41;3.80;;;1.58;;
78372;SDS011;67656;52.074;4.758;2023-04-24T01:43:42;4.38;;;1.42;;
78372;SDS011;67656;52.074;4.758;2023-04-24T01:48:42;4.32;;;1.92;;
78372;SDS011;67656;52.074;4.758;2023-04-24T01:53:45;7.75;;;2.40;;
78372;SDS011;67656;52.074;4.758;2023-04-24T01:58:45;9.40;;;3.33;;
78372;SDS011;67656;52.074;4.758;2023-04-24T02:03:46;7.93;;;2.47;;
78372;SDS011;67656;52.074;4.758;2023-04-24T02:08:46;6.95;;;2.40;;
78372;SDS011;67656;52.074;4.758;2023-04-24T02:13:47;6.25;;;2.40;;
78372;SDS011;67656;52.074;4.758;2023-04-24T02:18:47;7.70;;;3.00;;
78372;SDS011;67656;52.074;4.758;2023-04-24T02:23:47;11.02;;;2.85;;
78372;SDS011;67656;52.074;4.758;2023-04-24T02:28:48;9.13;;;2.75;;
78372;SDS011;67656;52.074;4.758;2023-04-24T02:33:48;8.45;;;2.70;;
78372;SDS011;67656;52.074;4.758;2023-04-24T02:38:49;6.03;;;2.17;;
78372;SDS011;67656;52.074;4.758;2023-04-24T02:43:49;7.05;;;1.80;;
78372;SDS011;67656;52.074;4.758;2023-04-24T02:48:49;6.24;;;2.30;;
78372;SDS011;67656;52.074;4.758;2023-04-24T02:53:50;5.95;;;2.22;;
78372;SDS011;67656;52.074;4.758;2023-04-24T02:58:50;9.98;;;2.95;;
78372;SDS011;67656;52.074;4.758;2023-04-24T03:03:50;8.40;;;2.92;;
78372;SDS011;67656;52.074;4.758;2023-04-24T03:08:51;10.90;;;3.63;;
78372;SDS011;67656;52.074;4.758;2023-04-24T03:13:51;10.80;;;3.53;;
78372;SDS011;67656;52.074;4.758;2023-04-24T03:18:53;5.20;;;2.00;;
78372;SDS011;67656;52.074;4.758;2023-04-24T03:23:54;3.88;;;1.40;;
78372;SDS011;67656;52.074;4.758;2023-04-24T03:28:55;2.10;;;0.80;;
78372;SDS011;67656;52.074;4.758;2023-04-24T03:33:55;4.10;;;0.80;;
78372;SDS011;67656;52.074;4.758;2023-04-24T03:38:56;1.13;;;0.50;;
78372;SDS011;67656;52.074;4.758;2023-04-24T03:44:00;2.00;;;0.55;;
78372;SDS011;67656;52.074;4.758;2023-04-24T03:49:01;2.58;;;0.70;;
78372;SDS011;67656;52.074;4.758;2023-04-24T03:54:06;1.20;;;0.70;;
78372;SDS011;67656;52.074;4.758;2023-04-24T03:59:09;2.60;;;0.50;;
78372;SDS011;67656;52.074;4.758;2023-04-24T04:04:11;3.17;;;1.00;;
78372;SDS011;67656;52.074;4.758;2023-04-24T04:09:12;2.08;;;1.10;;
78372;SDS011;67656;52.074;4.758;2023-04-24T04:14:12;4.53;;;1.13;;
78372;SDS011;67656;52.074;4.758;2023-04-24T04:19:15;3.20;;;1.10;;
78372;SDS011;67656;52.074;4.758;2023-04-24T04:24:16;2.53;;;0.77;;
78372;SDS011;67656;52.074;4.758;2023-04-24T04:29:19;3.67;;;1.02;;
78372;SDS011;67656;52.074;4.758;2023-04-24T04:34:21;1.67;;;0.70;;
78372;SDS011;67656;52.074;4.758;2023-04-24T04:39:22;1.20;;;0.50;;
78372;SDS011;67656;52.074;4.758;2023-04-24T04:44:29;1.10;;;0.40;;
78372;SDS011;67656;52.074;4.758;2023-04-24T04:49:30;2.75;;;0.52;;
78372;SDS011;67656;52.074;4.758;2023-04-24T04:54:30;2.55;;;0.50;;
78372;SDS011;67656;52.074;4.758;2023-04-24T04:59:31;2.83;;;0.40;;
78372;SDS011;67656;52.074;4.758;2023-04-24T05:04:37;1.20;;;0.40;;
78372;SDS011;67656;52.074;4.758;2023-04-24T05:09:38;1.13;;;0.50;;
78372;SDS011;67656;52.074;4.758;2023-04-24T05:14:40;3.67;;;1.30;;
78372;SDS011;67656;52.074;4.758;2023-04-24T05:19:41;8.35;;;2.38;;
78372;SDS011;67656;52.074;4.758;2023-04-24T05:24:42;7.53;;;3.10;;
78372;SDS011;67656;52.074;4.758;2023-04-24T05:30:08;4.85;;;2.42;;
78372;SDS011;67656;52.074;4.758;2023-04-24T05:35:09;9.23;;;2.58;;
78372;SDS011;67656;52.074;4.758;2023-04-24T05:40:10;9.65;;;3.92;;
78372;SDS011;67656;52.074;4.758;2023-04-24T05:45:11;14.70;;;6.27;;
78372;SDS011;67656;52.074;4.758;2023-04-24T05:50:11;15.52;;;6.10;;
78372;SDS011;67656;52.074;4.758;2023-04-24T05:55:12;18.30;;;7.20;;
78372;SDS011;67656;52.074;4.758;2023-04-24T06:00:15;13.40;;;5.63;;
78372;SDS011;67656;52.074;4.758;2023-04-24T06:05:23;20.23;;;6.50;;
78372;SDS011;67656;52.074;4.758;2023-04-24T06:10:26;14.82;;;5.50;;
78372;SDS011;67656;52.074;4.758;2023-04-24T06:15:28;14.77;;;5.17;;
78372;SDS011;67656;52.074;4.758;2023-04-24T06:20:33;18.33;;;6.10;;
78372;SDS011;67656;52.074;4.758;2023-04-24T06:25:35;14.20;;;5.27;;
78372;SDS011;67656;52.074;4.758;2023-04-24T06:30:36;15.43;;;6.07;;
78372;SDS011;67656;52.074;4.758;2023-04-24T06:35:36;18.30;;;4.73;;
78372;SDS011;67656;52.074;4.758;2023-04-24T06:40:36;16.63;;;4.30;;
78372;SDS011;67656;52.074;4.758;2023-04-24T06:45:37;14.30;;;4.40;;
78372;SDS011;67656;52.074;4.758;2023-04-24T06:50:38;17.83;;;4.20;;
78372;SDS011;67656;52.074;4.758;2023-04-24T06:55:38;12.83;;;3.43;;
78372;SDS011;67656;52.074;4.758;2023-04-24T07:00:39;16.53;;;4.13;;
78372;SDS011;67656;52.074;4.758;2023-04-24T07:05:39;11.64;;;3.38;;
78372;SDS011;67656;52.074;4.758;2023-04-24T07:10:39;14.30;;;3.40;;
78372;SDS011;67656;52.074;4.758;2023-04-24T07:15:40;13.57;;;3.45;;
78372;SDS011;67656;52.074;4.758;2023-04-24T07:20:40;12.20;;;3.47;;
78372;SDS011;67656;52.074;4.758;2023-04-24T07:25:40;13.18;;;2.90;;
78372;SDS011;67656;52.074;4.758;2023-04-24T07:30:41;13.13;;;3.07;;
78372;SDS011;67656;52.074;4.758;2023-04-24T07:35:41;12.48;;;2.10;;
78372;SDS011;67656;52.074;4.758;2023-04-24T07:40:42;9.20;;;1.70;;
78372;SDS011;67656;52.074;4.758;2023-04-24T07:45:43;8.88;;;2.30;;
78372;SDS011;67656;52.074;4.758;2023-04-24T07:50:44;7.80;;;1.33;;
78372;SDS011;67656;52.074;4.758;2023-04-24T07:55:45;6.13;;;1.33;;
78372;SDS011;67656;52.074;4.758;2023-04-24T08:00:45;7.70;;;1.90;;
78372;SDS011;67656;52.074;4.758;2023-04-24T08:05:46;8.43;;;1.70;;
78372;SDS011;67656;52.074;4.758;2023-04-24T08:10:46;6.27;;;1.87;;
78372;SDS011;67656;52.074;4.758;2023-04-24T08:15:46;8.75;;;2.22;;
78372;SDS011;67656;52.074;4.758;2023-04-24T08:20:47;11.35;;;2.03;;
78372;SDS011;67656;52.074;4.758;2023-04-24T08:25:48;6.63;;;1.50;;
78372;SDS011;67656;52.074;4.758;2023-04-24T08:30:48;6.78;;;1.58;;
78372;SDS011;67656;52.074;4.758;2023-04-24T08:35:49;6.18;;;1.40;;
78372;SDS011;67656;52.074;4.758;2023-04-24T08:40:49;8.88;;;1.80;;
78372;SDS011;67656;52.074;4.758;2023-04-24T08:45:50;5.82;;;1.42;;
78372;SDS011;67656;52.074;4.758;2023-04-24T08:50:50;8.63;;;1.42;;
78372;SDS011;67656;52.074;4.758;2023-04-24T08:55:51;4.85;;;1.42;;
78372;SDS011;67656;52.074;4.758;2023-04-24T09:00:55;3.70;;;1.10;;
78372;SDS011;67656;52.074;4.758;2023-04-24T09:05:55;4.25;;;1.20;;
78372;SDS011;67656;52.074;4.758;2023-04-24T09:10:57;3.13;;;1.02;;
78372;SDS011;67656;52.074;4.758;2023-04-24T09:15:57;5.38;;;1.20;;
78372;SDS011;67656;52.074;4.758;2023-04-24T09:36:11;5.35;;;0.82;;
78372;SDS011;67656;52.074;4.758;2023-04-24T09:41:13;4.63;;;0.80;;
78372;SDS011;67656;52.074;4.758;2023-04-24T09:46:13;2.42;;;0.60;;
78372;SDS011;67656;52.074;4.758;2023-04-24T09:51:14;4.53;;;0.52;;
78372;SDS011;67656;52.074;4.758;2023-04-24T09:56:14;4.75;;;0.70;;
78372;SDS011;67656;52.074;4.758;2023-04-24T10:01:15;2.10;;;0.60;;
78372;SDS011;67656;52.074;4.758;2023-04-24T10:06:15;1.85;;;0.50;;
78372;SDS011;67656;52.074;4.758;2023-04-24T10:11:15;0.92;;;0.80;;
78372;SDS011;67656;52.074;4.758;2023-04-24T10:16:16;7.78;;;2.67;;
78372;SDS011;67656;52.074;4.758;2023-04-24T10:21:17;2.72;;;0.70;;
78372;SDS011;67656;52.074;4.758;2023-04-24T10:26:17;5.22;;;1.88;;
78372;SDS011;67656;52.074;4.758;2023-04-24T10:31:19;9.20;;;4.72;;
78372;SDS011;67656;52.074;4.758;2023-04-24T10:36:21;7.70;;;3.20;;
78372;SDS011;67656;52.074;4.758;2023-04-24T10:41:24;4.53;;;1.30;;
78372;SDS011;67656;52.074;4.758;2023-04-24T10:46:26;5.50;;;1.52;;
78372;SDS011;67656;52.074;4.758;2023-04-24T10:51:43;6.85;;;4.07;;
78372;SDS011;67656;52.074;4.758;2023-04-24T10:56:51;3.30;;;0.50;;
78372;SDS011;67656;52.074;4.758;2023-04-24T11:01:55;3.55;;;0.60;;
78372;SDS011;67656;52.074;4.758;2023-04-24T11:06:55;3.33;;;0.60;;
78372;SDS011;67656;52.074;4.758;2023-04-24T11:12:13;6.70;;;0.80;;
78372;SDS011;67656;52.074;4.758;2023-04-24T11:17:26;5.35;;;0.80;;
78372;SDS011;67656;52.074;4.758;2023-04-24T11:22:30;5.32;;;0.88;;
78372;SDS011;67656;52.074;4.758;2023-04-24T11:27:43;1.83;;;0.50;;
78372;SDS011;67656;52.074;4.758;2023-04-24T11:32:47;6.57;;;3.00;;
78372;SDS011;67656;52.074;4.758;2023-04-24T11:37:49;1.58;;;0.50;;
78372;SDS011;67656;52.074;4.758;2023-04-24T11:42:51;3.03;;;0.93;;
78372;SDS011;67656;52.074;4.758;2023-04-24T11:47:52;6.80;;;1.20;;
78372;SDS011;67656;52.074;4.758;2023-04-24T11:52:53;7.28;;;1.88;;
78372;SDS011;67656;52.074;4.758;2023-04-24T11:57:55;3.63;;;1.50;;
78372;SDS011;67656;52.074;4.758;2023-04-24T12:03:06;10.50;;;1.15;;
78372;SDS011;67656;52.074;4.758;2023-04-24T12:08:10;6.43;;;1.38;;
78372;SDS011;67656;52.074;4.758;2023-04-24T12:13:11;3.92;;;1.20;;
78372;SDS011;67656;52.074;4.758;2023-04-24T12:18:12;10.88;;;1.20;;
78372;SDS011;67656;52.074;4.758;2023-04-24T12:23:14;4.95;;;1.00;;
78372;SDS011;67656;52.074;4.758;2023-04-24T12:28:15;12.60;;;1.90;;
78372;SDS011;67656;52.074;4.758;2023-04-24T12:33:18;11.82;;;2.05;;
78372;SDS011;67656;52.074;4.758;2023-04-24T12:38:24;8.30;;;1.30;;
78372;SDS011;67656;52.074;4.758;2023-04-24T12:43:25;11.27;;;1.65;;
78372;SDS011;67656;52.074;4.758;2023-04-24T12:48:26;5.95;;;1.40;;
78372;SDS011;67656;52.074;4.758;2023-04-24T12:53:28;9.55;;;1.48;;
78372;SDS011;67656;52.074;4.758;2023-04-24T12:58:28;6.70;;;2.00;;
78372;SDS011;67656;52.074;4.758;2023-04-24T13:03:29;8.75;;;2.03;;
78372;SDS011;67656;52.074;4.758;2023-04-24T13:08:29;10.40;;;1.70;;
78372;SDS011;67656;52.074;4.758;2023-04-24T13:13:29;8.23;;;1.80;;
78372;SDS011;67656;52.074;4.758;2023-04-24T13:18:30;8.40;;;1.88;;
78372;SDS011;67656;52.074;4.758;2023-04-24T13:23:30;8.15;;;1.70;;
78372;SDS011;67656;52.074;4.758;2023-04-24T13:28:30;8.45;;;1.33;;
78372;SDS011;67656;52.074;4.758;2023-04-24T13:33:31;7.13;;;1.50;;
78372;SDS011;67656;52.074;4.758;2023-04-24T13:38:31;10.15;;;2.17;;
78372;SDS011;67656;52.074;4.758;2023-04-24T13:43:32;10.23;;;1.70;;
78372;SDS011;67656;52.074;4.758;2023-04-24T13:48:32;3.28;;;1.40;;
78372;SDS011;67656;52.074;4.758;2023-04-24T13:53:32;7.60;;;1.64;;
78372;SDS011;67656;52.074;4.758;2023-04-24T13:58:33;11.32;;;2.92;;
78372;SDS011;67656;52.074;4.758;2023-04-24T14:03:33;7.95;;;2.53;;
78372;SDS011;67656;52.074;4.758;2023-04-24T14:08:34;8.85;;;2.30;;
78372;SDS011;67656;52.074;4.758;2023-04-24T14:13:35;11.02;;;2.95;;
78372;SDS011;67656;52.074;4.758;2023-04-24T14:18:36;6.03;;;1.70;;
78372;SDS011;67656;52.074;4.758;2023-04-24T14:23:37;7.18;;;2.38;;
78372;SDS011;67656;52.074;4.758;2023-04-24T14:28:37;8.80;;;2.50;;
78372;SDS011;67656;52.074;4.758;2023-04-24T14:33:38;9.65;;;2.63;;
78372;SDS011;67656;52.074;4.758;2023-04-24T14:38:38;8.48;;;1.90;;
78372;SDS011;67656;52.074;4.758;2023-04-24T14:43:38;10.25;;;1.92;;
78372;SDS011;67656;52.074;4.758;2023-04-24T14:48:39;12.60;;;2.25;;
78372;SDS011;67656;52.074;4.758;2023-04-24T14:53:40;8.38;;;2.78;;
78372;SDS011;67656;52.074;4.758;2023-04-24T14:58:40;5.97;;;1.83;;
78372;SDS011;67656;52.074;4.758;2023-04-24T15:03:40;10.73;;;2.10;;
78372;SDS011;67656;52.074;4.758;2023-04-24T15:08:41;8.45;;;2.95;;
78372;SDS011;67656;52.074;4.758;2023-04-24T15:13:41;9.82;;;2.40;;
78372;SDS011;67656;52.074;4.758;2023-04-24T15:18:41;9.20;;;2.20;;
78372;SDS011;67656;52.074;4.758;2023-04-24T15:23:42;11.23;;;2.35;;
78372;SDS011;67656;52.074;4.758;2023-04-24T15:28:42;13.27;;;3.03;;
78372;SDS011;67656;52.074;4.758;2023-04-24T15:33:43;9.60;;;1.90;;
78372;SDS011;67656;52.074;4.758;2023-04-24T15:38:43;5.63;;;1.85;;
78372;SDS011;67656;52.074;4.758;2023-04-24T15:43:44;4.93;;;1.58;;
78372;SDS011;67656;52.074;4.758;2023-04-24T15:48:45;8.07;;;1.98;;
78372;SDS011;67656;52.074;4.758;2023-04-24T15:53:45;9.55;;;2.38;;
78372;SDS011;67656;52.074;4.758;2023-04-24T15:58:45;13.15;;;3.35;;
78372;SDS011;67656;52.074;4.758;2023-04-24T16:03:46;9.90;;;3.08;;
78372;SDS011;67656;52.074;4.758;2023-04-24T16:08:48;8.38;;;2.60;;
78372;SDS011;67656;52.074;4.758;2023-04-24T16:13:49;10.30;;;2.40;;
78372;SDS011;67656;52.074;4.758;2023-04-24T16:18:49;11.18;;;2.50;;
78372;SDS011;67656;52.074;4.758;2023-04-24T16:23:50;7.20;;;1.70;;
78372;SDS011;67656;52.074;4.758;2023-04-24T16:28:50;10.25;;;2.40;;
78372;SDS011;67656;52.074;4.758;2023-04-24T16:33:51;5.80;;;1.70;;
78372;SDS011;67656;52.074;4.758;2023-04-24T16:38:51;13.36;;;2.36;;
78372;SDS011;67656;52.074;4.758;2023-04-24T16:43:51;13.18;;;2.46;;
78372;SDS011;67656;52.074;4.758;2023-04-24T16:48:51;10.30;;;2.78;;
78372;SDS011;67656;52.074;4.758;2023-04-24T16:53:52;8.60;;;2.40;;
78372;SDS011;67656;52.074;4.758;2023-04-24T16:58:52;12.25;;;3.05;;
78372;SDS011;67656;52.074;4.758;2023-04-24T17:03:52;12.50;;;2.70;;
78372;SDS011;67656;52.074;4.758;2023-04-24T17:08:53;11.73;;;2.22;;
78372;SDS011;67656;52.074;4.758;2023-04-24T17:13:53;12.10;;;2.20;;
78372;SDS011;67656;52.074;4.758;2023-04-24T17:18:53;15.95;;;3.05;;
78372;SDS011;67656;52.074;4.758;2023-04-24T17:23:54;12.45;;;4.07;;
78372;SDS011;67656;52.074;4.758;2023-04-24T17:28:54;11.14;;;2.78;;
78372;SDS011;67656;52.074;4.758;2023-04-24T17:33:55;8.80;;;3.47;;
78372;SDS011;67656;52.074;4.758;2023-04-24T17:38:56;10.24;;;2.98;;
78372;SDS011;67656;52.074;4.758;2023-04-24T17:43:56;11.40;;;2.65;;
78372;SDS011;67656;52.074;4.758;2023-04-24T17:48:56;9.75;;;2.80;;
78372;SDS011;67656;52.074;4.758;2023-04-24T17:53:57;10.43;;;2.22;;
78372;SDS011;67656;52.074;4.758;2023-04-24T17:58:57;16.30;;;2.72;;
78372;SDS011;67656;52.074;4.758;2023-04-24T18:03:57;6.85;;;2.05;;
78372;SDS011;67656;52.074;4.758;2023-04-24T18:08:58;9.57;;;2.40;;
78372;SDS011;67656;52.074;4.758;2023-04-24T18:13:58;11.15;;;2.47;;
78372;SDS011;67656;52.074;4.758;2023-04-24T18:18:58;7.85;;;2.42;;
78372;SDS011;67656;52.074;4.758;2023-04-24T18:23:59;9.10;;;2.45;;
78372;SDS011;67656;52.074;4.758;2023-04-24T18:28:59;9.95;;;2.10;;
78372;SDS011;67656;52.074;4.758;2023-04-24T18:33:59;2.92;;;1.60;;
78372;SDS011;67656;52.074;4.758;2023-04-24T18:39:00;7.60;;;1.30;;
78372;SDS011;67656;52.074;4.758;2023-04-24T18:44:00;7.30;;;1.95;;
78372;SDS011;67656;52.074;4.758;2023-04-24T18:49:02;5.68;;;1.63;;
78372;SDS011;67656;52.074;4.758;2023-04-24T18:54:02;7.07;;;2.05;;
78372;SDS011;67656;52.074;4.758;2023-04-24T18:59:03;5.67;;;1.87;;
78372;SDS011;67656;52.074;4.758;2023-04-24T19:04:03;6.60;;;1.90;;
78372;SDS011;67656;52.074;4.758;2023-04-24T19:09:03;2.80;;;0.60;;
78372;SDS011;67656;52.074;4.758;2023-04-24T19:14:04;1.43;;;0.50;;
78372;SDS011;67656;52.074;4.758;2023-04-24T19:19:04;2.33;;;0.60;;
78372;SDS011;67656;52.074;4.758;2023-04-24T19:24:04;2.07;;;0.70;;
78372;SDS011;67656;52.074;4.758;2023-04-24T19:29:05;4.27;;;0.90;;
78372;SDS011;67656;52.074;4.758;2023-04-24T19:34:10;3.13;;;1.10;;
78372;SDS011;67656;52.074;4.758;2023-04-24T19:39:11;6.00;;;1.10;;
78372;SDS011;67656;52.074;4.758;2023-04-24T19:44:11;5.77;;;1.10;;
78372;SDS011;67656;52.074;4.758;2023-04-24T19:49:11;6.37;;;1.10;;
78372;SDS011;67656;52.074;4.758;2023-04-24T19:54:12;2.83;;;0.90;;
78372;SDS011;67656;52.074;4.758;2023-04-24T19:59:12;3.77;;;1.13;;
78372;SDS011;67656;52.074;4.758;2023-04-24T20:04:13;5.80;;;0.90;;
78372;SDS011;67656;52.074;4.758;2023-04-24T20:09:13;6.60;;;1.10;;
78372;SDS011;67656;52.074;4.758;2023-04-24T20:14:13;3.03;;;0.93;;
78372;SDS011;67656;52.074;4.758;2023-04-24T20:19:14;5.50;;;0.93;;
78372;SDS011;67656;52.074;4.758;2023-04-24T20:24:14;3.60;;;1.00;;
78372;SDS011;67656;52.074;4.758;2023-04-24T20:29:14;2.60;;;0.90;;
78372;SDS011;67656;52.074;4.758;2023-04-24T20:34:15;3.17;;;1.20;;
78372;SDS011;67656;52.074;4.758;2023-04-24T20:39:15;5.57;;;1.00;;
78372;SDS011;67656;52.074;4.758;2023-04-24T20:44:15;5.83;;;1.10;;
78372;SDS011;67656;52.074;4.758;2023-04-24T20:49:18;5.00;;;1.00;;
78372;SDS011;67656;52.074;4.758;2023-04-24T20:54:19;6.83;;;0.97;;
78372;SDS011;67656;52.074;4.758;2023-04-24T20:59:19;5.80;;;0.90;;
78372;SDS011;67656;52.074;4.758;2023-04-24T21:04:20;7.92;;;1.12;;
78372;SDS011;67656;52.074;4.758;2023-04-24T21:09:20;6.16;;;1.10;;
78372;SDS011;67656;52.074;4.758;2023-04-24T21:14:20;7.40;;;1.03;;
78372;SDS011;67656;52.074;4.758;2023-04-24T21:19:21;7.40;;;1.40;;
78372;SDS011;67656;52.074;4.758;2023-04-24T21:24:21;7.43;;;1.60;;
78372;SDS011;67656;52.074;4.758;2023-04-24T21:29:21;8.64;;;1.28;;
78372;SDS011;67656;52.074;4.758;2023-04-24T21:34:22;7.97;;;1.47;;
78372;SDS011;67656;52.074;4.758;2023-04-24T21:39:22;7.53;;;1.50;;
78372;SDS011;67656;52.074;4.758;2023-04-24T21:44:22;9.27;;;1.53;;
78372;SDS011;67656;52.074;4.758;2023-04-24T21:49:23;7.43;;;1.73;;
78372;SDS011;67656;52.074;4.758;2023-04-24T21:54:23;7.33;;;1.87;;
78372;SDS011;67656;52.074;4.758;2023-04-24T21:59:24;8.10;;;1.63;;
78372;SDS011;67656;52.074;4.758;2023-04-24T22:04:24;7.33;;;1.47;;
78372;SDS011;67656;52.074;4.758;2023-04-24T22:09:25;12.03;;;1.70;;
78372;SDS011;67656;52.074;4.758;2023-04-24T22:14:25;5.47;;;1.47;;
78372;SDS011;67656;52.074;4.758;2023-04-24T22:19:26;10.40;;;1.80;;
78372;SDS011;67656;52.074;4.758;2023-04-24T22:24:26;10.53;;;1.77;;
78372;SDS011;67656;52.074;4.758;2023-04-24T22:29:27;6.53;;;1.90;;
78372;SDS011;67656;52.074;4.758;2023-04-24T22:34:27;7.53;;;1.93;;
78372;SDS011;67656;52.074;4.758;2023-04-24T22:39:28;9.37;;;1.97;;
78372;SDS011;67656;52.074;4.758;2023-04-24T22:44:28;11.50;;;2.40;;
78372;SDS011;67656;52.074;4.758;2023-04-24T22:49:28;9.03;;;2.30;;
78372;SDS011;67656;52.074;4.758;2023-04-24T22:54:30;14.90;;;2.50;;
78372;SDS011;67656;52.074;4.758;2023-04-24T22:59:31;7.97;;;2.27;;
78372;SDS011;67656;52.074;4.758;2023-04-24T23:04:31;16.43;;;2.37;;
78372;SDS011;67656;52.074;4.758;2023-04-24T23:09:32;10.50;;;2.57;;
78372;SDS011;67656;52.074;4.758;2023-04-24T23:14:32;9.03;;;2.23;;
78372;SDS011;67656;52.074;4.758;2023-04-24T23:19:33;13.53;;;2.10;;
78372;SDS011;67656;52.074;4.758;2023-04-24T23:24:34;7.73;;;1.90;;
78372;SDS011;67656;52.074;4.758;2023-04-24T23:29:34;9.60;;;1.97;;
78372;SDS011;67656;52.074;4.758;2023-04-24T23:34:34;12.17;;;1.90;;
78372;SDS011;67656;52.074;4.758;2023-04-24T23:39:35;12.00;;;2.20;;
78372;SDS011;67656;52.074;4.758;2023-04-24T23:44:35;15.47;;;2.73;;
78372;SDS011;67656;52.074;4.758;2023-04-24T23:49:35;11.50;;;1.70;;
78372;SDS011;67656;52.074;4.758;2023-04-24T23:54:36;9.23;;;2.30;;
78372;SDS011;67656;52.074;4.758;2023-04-24T23:59:36;5.30;;;1.80;;
